DCM977 KDFW-KLAX
Flight info
| Callsign | DCM977 |
|---|---|
| Flight time | 2h 51m |
| Altitude | 30000 |
| Route | HRPER3 HULZE ABQ J6 ZUN/N0468F320 KIDDR DNERO ANJLL4 |
| Aircraft | B738/M-SDE2E3FGHIRWXY/LB1 |
Departure
| Time | 2026-04-26 00:48 |
|---|---|
| Airport | Dallas Fort Worth International Airport (KDFW) |
Arrival
| Time | 2026-04-26 03:39 |
|---|---|
| Airport | Los Angeles International Airport (KLAX) |
| Time | Latitude | Longitude | Altitude | Speed | Heading |
|---|---|---|---|---|---|
| 2026-04-26 00:06 | 32.91199 | -97.03611 | 597 ft | 0 kts | 270° |
| 2026-04-26 00:42 | 32.91199 | -97.03616 | 597 ft | 2 kts | 270° |
| 2026-04-26 00:43 | 32.91186 | -97.03632 | 597 ft | 4 kts | 206° |
| 2026-04-26 00:43 | 32.91152 | -97.03626 | 597 ft | 6 kts | 137° |
| 2026-04-26 00:43 | 32.91145 | -97.03566 | 597 ft | 9 kts | 90° |
| 2026-04-26 00:43 | 32.91144 | -97.03498 | 597 ft | 7 kts | 90° |
| 2026-04-26 00:44 | 32.91126 | -97.03449 | 597 ft | 7 kts | 159° |
| 2026-04-26 00:44 | 32.91077 | -97.03446 | 597 ft | 7 kts | 180° |
| 2026-04-26 00:44 | 32.91029 | -97.03446 | 597 ft | 7 kts | 177° |
| 2026-04-26 00:44 | 32.91007 | -97.03402 | 597 ft | 7 kts | 90° |
| 2026-04-26 00:45 | 32.91007 | -97.03347 | 597 ft | 7 kts | 90° |
| 2026-04-26 00:45 | 32.91007 | -97.03292 | 597 ft | 7 kts | 90° |
| 2026-04-26 00:45 | 32.91007 | -97.03239 | 597 ft | 4 kts | 90° |
| 2026-04-26 00:45 | 32.91007 | -97.03205 | 597 ft | 4 kts | 90° |
| 2026-04-26 00:46 | 32.91007 | -97.03171 | 597 ft | 4 kts | 90° |
| 2026-04-26 00:46 | 32.91007 | -97.03137 | 597 ft | 4 kts | 90° |
| 2026-04-26 00:46 | 32.91007 | -97.03105 | 597 ft | 4 kts | 90° |
| 2026-04-26 00:46 | 32.91007 | -97.03070 | 597 ft | 5 kts | 90° |
| 2026-04-26 00:47 | 32.91000 | -97.03010 | 597 ft | 9 kts | 119° |
| 2026-04-26 00:47 | 32.90939 | -97.02993 | 597 ft | 10 kts | 180° |
| 2026-04-26 00:47 | 32.90738 | -97.02995 | 597 ft | 61 kts | 180° |
| 2026-04-26 00:47 | 32.90087 | -97.02998 | 597 ft | 124 kts | 180° |
| 2026-04-26 00:48 | 32.89060 | -97.03001 | 683 ft | 165 kts | 180° |
| 2026-04-26 00:48 | 32.87895 | -97.03025 | 1372 ft | 160 kts | 182° |
| 2026-04-26 00:48 | 32.86775 | -97.03050 | 2135 ft | 162 kts | 180° |
| 2026-04-26 00:48 | 32.85598 | -97.03167 | 2571 ft | 185 kts | 198° |
| 2026-04-26 00:49 | 32.84390 | -97.03936 | 2826 ft | 209 kts | 206° |
| 2026-04-26 00:49 | 32.83038 | -97.04754 | 3121 ft | 224 kts | 205° |
| 2026-04-26 00:49 | 32.81622 | -97.05648 | 3527 ft | 239 kts | 206° |
| 2026-04-26 00:49 | 32.80134 | -97.06570 | 4239 ft | 241 kts | 206° |
| 2026-04-26 00:50 | 32.78670 | -97.07543 | 5115 ft | 242 kts | 216° |
| 2026-04-26 00:50 | 32.77578 | -97.09085 | 5887 ft | 248 kts | 237° |
| 2026-04-26 00:50 | 32.77003 | -97.11020 | 6647 ft | 256 kts | 255° |
| 2026-04-26 00:50 | 32.76673 | -97.13113 | 7403 ft | 258 kts | 255° |
| 2026-04-26 00:51 | 32.76520 | -97.15281 | 8009 ft | 273 kts | 269° |
| 2026-04-26 00:51 | 32.76698 | -97.17572 | 8590 ft | 282 kts | 271° |
| 2026-04-26 00:51 | 32.76874 | -97.19913 | 9290 ft | 285 kts | 270° |
| 2026-04-26 00:51 | 32.77035 | -97.22267 | 10029 ft | 286 kts | 271° |
| 2026-04-26 00:52 | 32.77223 | -97.24649 | 10526 ft | 300 kts | 276° |
| 2026-04-26 00:52 | 32.77715 | -97.27163 | 10692 ft | 323 kts | 282° |
| 2026-04-26 00:52 | 32.78373 | -97.29809 | 10860 ft | 344 kts | 284° |
| 2026-04-26 00:52 | 32.79090 | -97.32578 | 11002 ft | 362 kts | 284° |
| 2026-04-26 00:53 | 32.79846 | -97.35525 | 11131 ft | 378 kts | 284° |
| 2026-04-26 00:53 | 32.80612 | -97.38574 | 11322 ft | 390 kts | 284° |
| 2026-04-26 00:53 | 32.81370 | -97.41648 | 11746 ft | 394 kts | 284° |
| 2026-04-26 00:53 | 32.82131 | -97.44771 | 12382 ft | 392 kts | 283° |
| 2026-04-26 00:54 | 32.82882 | -97.47885 | 12965 ft | 393 kts | 284° |
| 2026-04-26 00:54 | 32.83634 | -97.51028 | 13468 ft | 396 kts | 284° |
| 2026-04-26 00:54 | 32.84390 | -97.54190 | 13960 ft | 399 kts | 284° |
| 2026-04-26 00:54 | 32.85152 | -97.57371 | 14477 ft | 401 kts | 284° |
| 2026-04-26 00:55 | 32.85916 | -97.60575 | 15002 ft | 403 kts | 284° |
| 2026-04-26 00:55 | 32.86673 | -97.63750 | 15485 ft | 405 kts | 284° |
| 2026-04-26 00:55 | 32.87443 | -97.66985 | 15983 ft | 408 kts | 284° |
| 2026-04-26 00:55 | 32.88216 | -97.70238 | 16479 ft | 409 kts | 284° |
| 2026-04-26 00:56 | 32.88997 | -97.73513 | 16944 ft | 412 kts | 285° |
| 2026-04-26 00:56 | 32.89921 | -97.76761 | 17425 ft | 415 kts | 289° |
| 2026-04-26 00:56 | 32.90981 | -97.79967 | 17844 ft | 418 kts | 290° |
| 2026-04-26 00:56 | 32.92083 | -97.83175 | 18258 ft | 420 kts | 290° |
| 2026-04-26 00:57 | 32.93191 | -97.86405 | 18658 ft | 422 kts | 290° |
| 2026-04-26 00:57 | 32.94288 | -97.89656 | 19074 ft | 424 kts | 290° |
| 2026-04-26 00:57 | 32.95378 | -97.92933 | 19450 ft | 426 kts | 290° |
| 2026-04-26 00:57 | 32.96449 | -97.96185 | 19797 ft | 429 kts | 290° |
| 2026-04-26 00:58 | 32.97550 | -97.99548 | 20134 ft | 431 kts | 290° |
| 2026-04-26 00:58 | 32.98622 | -98.02838 | 20505 ft | 432 kts | 289° |
| 2026-04-26 00:58 | 32.99722 | -98.06224 | 20865 ft | 434 kts | 290° |
| 2026-04-26 00:58 | 33.00446 | -98.08450 | 21089 ft | 436 kts | 290° |
| 2026-04-26 00:59 | 33.01900 | -98.12929 | 21486 ft | 438 kts | 290° |
| 2026-04-26 00:59 | 33.03003 | -98.16323 | 21792 ft | 440 kts | 290° |
| 2026-04-26 00:59 | 33.04112 | -98.19735 | 22079 ft | 442 kts | 290° |
| 2026-04-26 00:59 | 33.05221 | -98.23159 | 22355 ft | 444 kts | 290° |
| 2026-04-26 01:00 | 33.05958 | -98.25431 | 22529 ft | 445 kts | 290° |
| 2026-04-26 01:00 | 33.07080 | -98.28878 | 22809 ft | 446 kts | 290° |
| 2026-04-26 01:00 | 33.08204 | -98.32330 | 23066 ft | 447 kts | 290° |
| 2026-04-26 01:00 | 33.09332 | -98.35796 | 23295 ft | 449 kts | 290° |
| 2026-04-26 01:01 | 33.10463 | -98.39277 | 23529 ft | 450 kts | 290° |
| 2026-04-26 01:01 | 33.11596 | -98.42766 | 23748 ft | 452 kts | 290° |
| 2026-04-26 01:01 | 33.12731 | -98.46270 | 23944 ft | 453 kts | 290° |
| 2026-04-26 01:01 | 33.13867 | -98.49780 | 24185 ft | 454 kts | 290° |
| 2026-04-26 01:02 | 33.15007 | -98.53304 | 24414 ft | 455 kts | 290° |
| 2026-04-26 01:02 | 33.16144 | -98.56826 | 24639 ft | 455 kts | 290° |
| 2026-04-26 01:02 | 33.17281 | -98.60350 | 24901 ft | 455 kts | 290° |
| 2026-04-26 01:02 | 33.18416 | -98.63871 | 25135 ft | 455 kts | 290° |
| 2026-04-26 01:03 | 33.19553 | -98.67401 | 25322 ft | 455 kts | 290° |
| 2026-04-26 01:03 | 33.20687 | -98.70932 | 25508 ft | 455 kts | 290° |
| 2026-04-26 01:03 | 33.21820 | -98.74459 | 25681 ft | 455 kts | 290° |
| 2026-04-26 01:03 | 33.22952 | -98.77992 | 25858 ft | 455 kts | 290° |
| 2026-04-26 01:04 | 33.24068 | -98.81476 | 26039 ft | 454 kts | 290° |
| 2026-04-26 01:04 | 33.25193 | -98.84989 | 26307 ft | 452 kts | 290° |
| 2026-04-26 01:04 | 33.26311 | -98.88487 | 26564 ft | 450 kts | 290° |
| 2026-04-26 01:04 | 33.27424 | -98.91973 | 26819 ft | 448 kts | 290° |
| 2026-04-26 01:05 | 33.28528 | -98.95439 | 27092 ft | 445 kts | 290° |
| 2026-04-26 01:05 | 33.29628 | -98.98894 | 27370 ft | 443 kts | 290° |
| 2026-04-26 01:05 | 33.30726 | -99.02339 | 27501 ft | 444 kts | 290° |
| 2026-04-26 01:05 | 33.31820 | -99.05779 | 27829 ft | 440 kts | 290° |
| 2026-04-26 01:06 | 33.32902 | -99.09188 | 28214 ft | 436 kts | 290° |
| 2026-04-26 01:06 | 33.33973 | -99.12569 | 28539 ft | 434 kts | 290° |
| 2026-04-26 01:06 | 33.35039 | -99.15933 | 28828 ft | 432 kts | 290° |
| 2026-04-26 01:06 | 33.36100 | -99.19286 | 29117 ft | 430 kts | 290° |
| 2026-04-26 01:07 | 33.37160 | -99.22642 | 29413 ft | 428 kts | 290° |
| 2026-04-26 01:07 | 33.38196 | -99.25921 | 29695 ft | 427 kts | 290° |
| 2026-04-26 01:07 | 33.40294 | -99.32575 | 29705 ft | 425 kts | 290° |
| 2026-04-26 01:08 | 33.42371 | -99.39183 | 29715 ft | 423 kts | 290° |
| 2026-04-26 01:08 | 33.44435 | -99.45762 | 29724 ft | 421 kts | 290° |
| 2026-04-26 01:09 | 33.46494 | -99.52340 | 29723 ft | 421 kts | 289° |
| 2026-04-26 01:09 | 33.48377 | -99.58925 | 29719 ft | 420 kts | 288° |
| 2026-04-26 01:10 | 33.50200 | -99.65582 | 29723 ft | 420 kts | 288° |
| 2026-04-26 01:10 | 33.52029 | -99.72226 | 29722 ft | 420 kts | 288° |
| 2026-04-26 01:11 | 33.53873 | -99.78880 | 29722 ft | 420 kts | 288° |
| 2026-04-26 01:11 | 33.55719 | -99.85540 | 29720 ft | 420 kts | 288° |
| 2026-04-26 01:12 | 33.57523 | -99.92063 | 29716 ft | 410 kts | 288° |
| 2026-04-26 01:12 | 33.59307 | -99.98530 | 29729 ft | 407 kts | 288° |
| 2026-04-26 01:13 | 33.61084 | -100.04987 | 29734 ft | 407 kts | 287° |
| 2026-04-26 01:13 | 33.62853 | -100.11432 | 29731 ft | 407 kts | 287° |
| 2026-04-26 01:14 | 33.64513 | -100.17491 | 29725 ft | 407 kts | 287° |
| 2026-04-26 01:14 | 33.66299 | -100.24082 | 29732 ft | 408 kts | 286° |
| 2026-04-26 01:15 | 33.67879 | -100.30592 | 29732 ft | 408 kts | 285° |
| 2026-04-26 01:15 | 33.69403 | -100.37093 | 29747 ft | 408 kts | 285° |
| 2026-04-26 01:16 | 33.70942 | -100.43616 | 29747 ft | 408 kts | 285° |
| 2026-04-26 01:16 | 33.72499 | -100.50172 | 29750 ft | 408 kts | 285° |
| 2026-04-26 01:17 | 33.74058 | -100.56732 | 29762 ft | 409 kts | 285° |
| 2026-04-26 01:17 | 33.75619 | -100.63316 | 29762 ft | 409 kts | 285° |
| 2026-04-26 01:18 | 33.77174 | -100.69888 | 29758 ft | 408 kts | 285° |
| 2026-04-26 01:18 | 33.78716 | -100.76419 | 29760 ft | 409 kts | 285° |
| 2026-04-26 01:19 | 33.80262 | -100.82992 | 29763 ft | 408 kts | 285° |
| 2026-04-26 01:19 | 33.81807 | -100.89579 | 29769 ft | 409 kts | 285° |
| 2026-04-26 01:20 | 33.83350 | -100.96173 | 29771 ft | 409 kts | 285° |
| 2026-04-26 01:20 | 33.84886 | -101.02750 | 29776 ft | 409 kts | 285° |
| 2026-04-26 01:21 | 33.86421 | -101.09337 | 29778 ft | 408 kts | 284° |
| 2026-04-26 01:21 | 33.87944 | -101.15896 | 29777 ft | 408 kts | 284° |
| 2026-04-26 01:22 | 33.89471 | -101.22485 | 29786 ft | 408 kts | 284° |
| 2026-04-26 01:22 | 33.90984 | -101.29036 | 29787 ft | 408 kts | 284° |
| 2026-04-26 01:23 | 33.92507 | -101.35640 | 29784 ft | 408 kts | 284° |
| 2026-04-26 01:23 | 33.94018 | -101.42216 | 29791 ft | 408 kts | 284° |
| 2026-04-26 01:24 | 33.95530 | -101.48817 | 29797 ft | 409 kts | 284° |
| 2026-04-26 01:24 | 33.97042 | -101.55433 | 29798 ft | 409 kts | 284° |
| 2026-04-26 01:25 | 33.98543 | -101.62016 | 29794 ft | 409 kts | 284° |
| 2026-04-26 01:25 | 34.00053 | -101.68649 | 29798 ft | 409 kts | 283° |
| 2026-04-26 01:26 | 34.01555 | -101.75280 | 29805 ft | 409 kts | 284° |
| 2026-04-26 01:26 | 34.03044 | -101.81870 | 29804 ft | 410 kts | 283° |
| 2026-04-26 01:27 | 34.04540 | -101.88505 | 29806 ft | 409 kts | 283° |
| 2026-04-26 01:27 | 34.06030 | -101.95134 | 29807 ft | 409 kts | 283° |
| 2026-04-26 01:28 | 34.07520 | -102.01780 | 29807 ft | 410 kts | 283° |
| 2026-04-26 01:28 | 34.08996 | -102.08375 | 29804 ft | 410 kts | 283° |
| 2026-04-26 01:29 | 34.10478 | -102.15018 | 29806 ft | 410 kts | 283° |
| 2026-04-26 01:29 | 34.11955 | -102.21656 | 29805 ft | 410 kts | 283° |
| 2026-04-26 01:30 | 34.13431 | -102.28311 | 29806 ft | 410 kts | 283° |
| 2026-04-26 01:30 | 34.14902 | -102.34964 | 29803 ft | 409 kts | 283° |
| 2026-04-26 01:31 | 34.16354 | -102.41554 | 29810 ft | 408 kts | 283° |
| 2026-04-26 01:31 | 34.17812 | -102.48177 | 29824 ft | 408 kts | 283° |
| 2026-04-26 01:32 | 34.19268 | -102.54810 | 29823 ft | 408 kts | 283° |
| 2026-04-26 01:32 | 34.20715 | -102.61433 | 29822 ft | 408 kts | 283° |
| 2026-04-26 01:33 | 34.22159 | -102.68061 | 29822 ft | 407 kts | 283° |
| 2026-04-26 01:33 | 34.23592 | -102.74645 | 29823 ft | 407 kts | 283° |
| 2026-04-26 01:34 | 34.25029 | -102.81267 | 29828 ft | 407 kts | 283° |
| 2026-04-26 01:34 | 34.26460 | -102.87880 | 29838 ft | 406 kts | 283° |
| 2026-04-26 01:35 | 34.27885 | -102.94492 | 29839 ft | 407 kts | 283° |
| 2026-04-26 01:35 | 34.29308 | -103.01103 | 29835 ft | 406 kts | 283° |
| 2026-04-26 01:36 | 34.30728 | -103.07719 | 29830 ft | 406 kts | 283° |
| 2026-04-26 01:37 | 34.32845 | -103.17643 | 29826 ft | 405 kts | 283° |
| 2026-04-26 01:37 | 34.34252 | -103.24248 | 29826 ft | 405 kts | 282° |
| 2026-04-26 01:38 | 34.35655 | -103.30846 | 29814 ft | 405 kts | 282° |
| 2026-04-26 01:38 | 34.37043 | -103.37405 | 29812 ft | 404 kts | 282° |
| 2026-04-26 01:39 | 34.38433 | -103.43992 | 29811 ft | 404 kts | 282° |
| 2026-04-26 01:39 | 34.39824 | -103.50599 | 29818 ft | 404 kts | 282° |
| 2026-04-26 01:40 | 34.41207 | -103.57186 | 29810 ft | 403 kts | 282° |
| 2026-04-26 01:40 | 34.42583 | -103.63772 | 29819 ft | 403 kts | 282° |
| 2026-04-26 01:41 | 34.43956 | -103.70348 | 29820 ft | 403 kts | 282° |
| 2026-04-26 01:41 | 34.45320 | -103.76893 | 29814 ft | 403 kts | 282° |
| 2026-04-26 01:42 | 34.46684 | -103.83471 | 29812 ft | 402 kts | 282° |
| 2026-04-26 01:42 | 34.48048 | -103.90063 | 29806 ft | 403 kts | 282° |
| 2026-04-26 01:43 | 34.49414 | -103.96658 | 29808 ft | 403 kts | 282° |
| 2026-04-26 01:43 | 34.50770 | -104.03247 | 29809 ft | 402 kts | 282° |
| 2026-04-26 01:44 | 34.52108 | -104.09793 | 29817 ft | 402 kts | 282° |
| 2026-04-26 01:44 | 34.53451 | -104.16390 | 29815 ft | 403 kts | 282° |
| 2026-04-26 01:45 | 34.54801 | -104.23001 | 29809 ft | 403 kts | 282° |
| 2026-04-26 01:45 | 34.56149 | -104.29599 | 29815 ft | 403 kts | 282° |
| 2026-04-26 01:46 | 34.57479 | -104.36169 | 29816 ft | 404 kts | 281° |
| 2026-04-26 01:46 | 34.58813 | -104.42797 | 29828 ft | 404 kts | 281° |
| 2026-04-26 01:47 | 34.60152 | -104.49438 | 29827 ft | 405 kts | 281° |
| 2026-04-26 01:47 | 34.61486 | -104.56080 | 29832 ft | 405 kts | 281° |
| 2026-04-26 01:48 | 34.62593 | -104.61602 | 29833 ft | 405 kts | 281° |
| 2026-04-26 01:48 | 34.63921 | -104.68255 | 29837 ft | 405 kts | 281° |
| 2026-04-26 01:49 | 34.65462 | -104.75993 | 29850 ft | 405 kts | 281° |
| 2026-04-26 01:49 | 34.66559 | -104.81528 | 29855 ft | 405 kts | 281° |
| 2026-04-26 01:50 | 34.67880 | -104.88200 | 29863 ft | 406 kts | 281° |
| 2026-04-26 01:50 | 34.69196 | -104.94876 | 29867 ft | 405 kts | 281° |
| 2026-04-26 01:51 | 34.70510 | -105.01554 | 29870 ft | 405 kts | 281° |
| 2026-04-26 01:51 | 34.71811 | -105.08186 | 29889 ft | 405 kts | 281° |
| 2026-04-26 01:52 | 34.73115 | -105.14855 | 29897 ft | 405 kts | 281° |
| 2026-04-26 01:52 | 34.74415 | -105.21522 | 29911 ft | 405 kts | 280° |
| 2026-04-26 01:53 | 34.75711 | -105.28192 | 29923 ft | 405 kts | 280° |
| 2026-04-26 01:53 | 34.76994 | -105.34815 | 29940 ft | 405 kts | 280° |
| 2026-04-26 01:54 | 34.78283 | -105.41493 | 29949 ft | 406 kts | 280° |
| 2026-04-26 01:54 | 34.79573 | -105.48191 | 29960 ft | 406 kts | 280° |
| 2026-04-26 01:55 | 34.80856 | -105.54882 | 29969 ft | 406 kts | 280° |
| 2026-04-26 01:55 | 34.82130 | -105.61549 | 29981 ft | 406 kts | 280° |
| 2026-04-26 01:56 | 34.83409 | -105.68260 | 29998 ft | 406 kts | 280° |
| 2026-04-26 01:56 | 34.84686 | -105.74984 | 29991 ft | 407 kts | 280° |
| 2026-04-26 01:57 | 34.85960 | -105.81712 | 29991 ft | 408 kts | 280° |
| 2026-04-26 01:57 | 34.87234 | -105.88452 | 29978 ft | 409 kts | 280° |
| 2026-04-26 01:58 | 34.88506 | -105.95209 | 29984 ft | 409 kts | 280° |
| 2026-04-26 01:58 | 34.89767 | -106.01934 | 29978 ft | 409 kts | 280° |
| 2026-04-26 01:59 | 34.91032 | -106.08703 | 29980 ft | 409 kts | 279° |
| 2026-04-26 01:59 | 34.92291 | -106.15465 | 29983 ft | 409 kts | 279° |
| 2026-04-26 02:00 | 34.92932 | -106.22250 | 29971 ft | 404 kts | 266° |
| 2026-04-26 02:00 | 34.92721 | -106.29107 | 29968 ft | 404 kts | 267° |
| 2026-04-26 02:01 | 34.92560 | -106.35957 | 29959 ft | 405 kts | 267° |
| 2026-04-26 02:01 | 34.92408 | -106.42834 | 29952 ft | 406 kts | 267° |
| 2026-04-26 02:02 | 34.92255 | -106.49719 | 29943 ft | 406 kts | 267° |
| 2026-04-26 02:02 | 34.92098 | -106.56562 | 29938 ft | 406 kts | 267° |
| 2026-04-26 02:03 | 34.91936 | -106.63458 | 29932 ft | 406 kts | 267° |
| 2026-04-26 02:03 | 34.91771 | -106.70335 | 29938 ft | 406 kts | 267° |
| 2026-04-26 02:04 | 34.91601 | -106.77212 | 29945 ft | 406 kts | 266° |
| 2026-04-26 02:04 | 34.91428 | -106.84048 | 29944 ft | 405 kts | 266° |
| 2026-04-26 02:05 | 34.91251 | -106.90909 | 29942 ft | 405 kts | 266° |
| 2026-04-26 02:05 | 34.91071 | -106.97768 | 29958 ft | 405 kts | 266° |
| 2026-04-26 02:06 | 34.90886 | -107.04631 | 29949 ft | 405 kts | 266° |
| 2026-04-26 02:06 | 34.90698 | -107.11437 | 29954 ft | 404 kts | 266° |
| 2026-04-26 02:07 | 34.90506 | -107.18283 | 29953 ft | 404 kts | 266° |
| 2026-04-26 02:07 | 34.90311 | -107.25137 | 29956 ft | 404 kts | 266° |
| 2026-04-26 02:08 | 34.90112 | -107.31983 | 29962 ft | 404 kts | 266° |
| 2026-04-26 02:08 | 34.89908 | -107.38818 | 29969 ft | 403 kts | 266° |
| 2026-04-26 02:09 | 34.89702 | -107.45612 | 29974 ft | 404 kts | 266° |
| 2026-04-26 02:09 | 34.89490 | -107.52447 | 29981 ft | 404 kts | 266° |
| 2026-04-26 02:10 | 34.89275 | -107.59275 | 29991 ft | 403 kts | 266° |
| 2026-04-26 02:10 | 34.89056 | -107.66112 | 29991 ft | 403 kts | 266° |
| 2026-04-26 02:11 | 34.88835 | -107.72940 | 29999 ft | 404 kts | 266° |
| 2026-04-26 02:11 | 34.88609 | -107.79768 | 30006 ft | 403 kts | 266° |
| 2026-04-26 02:12 | 34.88379 | -107.86603 | 30010 ft | 404 kts | 266° |
| 2026-04-26 02:12 | 34.88144 | -107.93451 | 30002 ft | 404 kts | 266° |
| 2026-04-26 02:13 | 34.87906 | -108.00293 | 30017 ft | 404 kts | 265° |
| 2026-04-26 02:13 | 34.87666 | -108.07089 | 30031 ft | 406 kts | 265° |
| 2026-04-26 02:14 | 34.87415 | -108.14044 | 30301 ft | 414 kts | 265° |
| 2026-04-26 02:14 | 34.87289 | -108.17528 | 30742 ft | 409 kts | 265° |
| 2026-04-26 02:14 | 34.87164 | -108.20967 | 31255 ft | 404 kts | 265° |
| 2026-04-26 02:14 | 34.87041 | -108.24352 | 31824 ft | 396 kts | 265° |
| 2026-04-26 02:15 | 34.86917 | -108.27698 | 31965 ft | 393 kts | 265° |
| 2026-04-26 02:15 | 34.86667 | -108.34318 | 32006 ft | 392 kts | 265° |
| 2026-04-26 02:16 | 34.86411 | -108.40988 | 32006 ft | 395 kts | 265° |
| 2026-04-26 02:16 | 34.86151 | -108.47693 | 32002 ft | 396 kts | 265° |
| 2026-04-26 02:17 | 34.85889 | -108.54368 | 32004 ft | 397 kts | 265° |
| 2026-04-26 02:17 | 34.85621 | -108.61087 | 31999 ft | 397 kts | 265° |
| 2026-04-26 02:18 | 34.85351 | -108.67809 | 32001 ft | 397 kts | 265° |
| 2026-04-26 02:18 | 34.85076 | -108.74527 | 31999 ft | 396 kts | 265° |
| 2026-04-26 02:19 | 34.84799 | -108.81230 | 32004 ft | 396 kts | 265° |
| 2026-04-26 02:19 | 34.84519 | -108.87898 | 31992 ft | 397 kts | 265° |
| 2026-04-26 02:20 | 34.84233 | -108.94603 | 31991 ft | 397 kts | 265° |
| 2026-04-26 02:20 | 34.83943 | -109.01312 | 31994 ft | 397 kts | 265° |
| 2026-04-26 02:21 | 34.83650 | -109.08020 | 31998 ft | 396 kts | 265° |
| 2026-04-26 02:21 | 34.83354 | -109.14720 | 31990 ft | 396 kts | 264° |
| 2026-04-26 02:22 | 34.83055 | -109.21378 | 31982 ft | 396 kts | 264° |
| 2026-04-26 02:22 | 34.82752 | -109.28076 | 31984 ft | 396 kts | 264° |
| 2026-04-26 02:23 | 34.82445 | -109.34782 | 31970 ft | 397 kts | 264° |
| 2026-04-26 02:23 | 34.82134 | -109.41493 | 31977 ft | 397 kts | 264° |
| 2026-04-26 02:24 | 34.81819 | -109.48197 | 31979 ft | 397 kts | 264° |
| 2026-04-26 02:24 | 34.81501 | -109.54907 | 31970 ft | 397 kts | 264° |
| 2026-04-26 02:25 | 34.81181 | -109.61573 | 31972 ft | 397 kts | 264° |
| 2026-04-26 02:25 | 34.80855 | -109.68283 | 31971 ft | 396 kts | 264° |
| 2026-04-26 02:26 | 34.80524 | -109.74993 | 31972 ft | 397 kts | 264° |
| 2026-04-26 02:26 | 34.80192 | -109.81691 | 31969 ft | 396 kts | 264° |
| 2026-04-26 02:27 | 34.79857 | -109.88342 | 31974 ft | 396 kts | 264° |
| 2026-04-26 02:27 | 34.79517 | -109.95035 | 31974 ft | 396 kts | 264° |
| 2026-04-26 02:28 | 34.79172 | -110.01725 | 31971 ft | 396 kts | 264° |
| 2026-04-26 02:28 | 34.78825 | -110.08417 | 31985 ft | 396 kts | 264° |
| 2026-04-26 02:29 | 34.78474 | -110.15101 | 31991 ft | 396 kts | 264° |
| 2026-04-26 02:29 | 34.78123 | -110.21748 | 31978 ft | 397 kts | 264° |
| 2026-04-26 02:30 | 34.77764 | -110.28449 | 31975 ft | 397 kts | 264° |
| 2026-04-26 02:30 | 34.77400 | -110.35143 | 31972 ft | 397 kts | 263° |
| 2026-04-26 02:31 | 34.77033 | -110.41852 | 31964 ft | 397 kts | 263° |
| 2026-04-26 02:31 | 34.76663 | -110.48563 | 31963 ft | 398 kts | 263° |
| 2026-04-26 02:32 | 34.76288 | -110.55281 | 31953 ft | 398 kts | 263° |
| 2026-04-26 02:32 | 34.75909 | -110.62009 | 31953 ft | 399 kts | 263° |
| 2026-04-26 02:33 | 34.75529 | -110.68708 | 31934 ft | 399 kts | 263° |
| 2026-04-26 02:33 | 34.75141 | -110.75454 | 31943 ft | 399 kts | 263° |
| 2026-04-26 02:34 | 34.74750 | -110.82203 | 31943 ft | 399 kts | 263° |
| 2026-04-26 02:34 | 34.74356 | -110.88941 | 31951 ft | 399 kts | 263° |
| 2026-04-26 02:35 | 34.73958 | -110.95673 | 31953 ft | 399 kts | 263° |
| 2026-04-26 02:35 | 34.73560 | -111.02364 | 31950 ft | 399 kts | 263° |
| 2026-04-26 02:36 | 34.73153 | -111.09089 | 31956 ft | 399 kts | 263° |
| 2026-04-26 02:36 | 34.72811 | -111.14718 | 31958 ft | 399 kts | 263° |
| 2026-04-26 02:37 | 34.72399 | -111.21447 | 31957 ft | 399 kts | 263° |
| 2026-04-26 02:37 | 34.71985 | -111.28124 | 31950 ft | 399 kts | 263° |
| 2026-04-26 02:38 | 34.71565 | -111.34849 | 31950 ft | 399 kts | 263° |
| 2026-04-26 02:38 | 34.71141 | -111.41577 | 31962 ft | 399 kts | 263° |
| 2026-04-26 02:39 | 34.70714 | -111.48300 | 31953 ft | 400 kts | 263° |
| 2026-04-26 02:39 | 34.70283 | -111.55050 | 31957 ft | 400 kts | 263° |
| 2026-04-26 02:40 | 34.69849 | -111.61793 | 31954 ft | 400 kts | 263° |
| 2026-04-26 02:40 | 34.69412 | -111.68504 | 31937 ft | 401 kts | 263° |
| 2026-04-26 02:41 | 34.68969 | -111.75262 | 31952 ft | 400 kts | 263° |
| 2026-04-26 02:41 | 34.68522 | -111.82004 | 31947 ft | 400 kts | 263° |
| 2026-04-26 02:42 | 34.68070 | -111.88750 | 31922 ft | 400 kts | 263° |
| 2026-04-26 02:42 | 34.67618 | -111.95449 | 31909 ft | 400 kts | 263° |
| 2026-04-26 02:43 | 34.66933 | -112.05534 | 31894 ft | 399 kts | 262° |
| 2026-04-26 02:43 | 34.66467 | -112.12252 | 31886 ft | 398 kts | 262° |
| 2026-04-26 02:44 | 34.66006 | -112.18916 | 31903 ft | 398 kts | 262° |
| 2026-04-26 02:44 | 34.65540 | -112.25617 | 31914 ft | 399 kts | 262° |
| 2026-04-26 02:45 | 34.65068 | -112.32332 | 31927 ft | 399 kts | 262° |
| 2026-04-26 02:45 | 34.64591 | -112.39053 | 31929 ft | 399 kts | 262° |
| 2026-04-26 02:46 | 34.64109 | -112.45774 | 31943 ft | 399 kts | 262° |
| 2026-04-26 02:46 | 34.63625 | -112.52499 | 31947 ft | 400 kts | 262° |
| 2026-04-26 02:47 | 34.63136 | -112.59234 | 31955 ft | 401 kts | 262° |
| 2026-04-26 02:47 | 34.62644 | -112.65944 | 31927 ft | 401 kts | 262° |
| 2026-04-26 02:48 | 34.62146 | -112.72692 | 31931 ft | 401 kts | 262° |
| 2026-04-26 02:48 | 34.61644 | -112.79446 | 31929 ft | 401 kts | 262° |
| 2026-04-26 02:49 | 34.61140 | -112.86186 | 31918 ft | 401 kts | 262° |
| 2026-04-26 02:49 | 34.60632 | -112.92917 | 31910 ft | 401 kts | 262° |
| 2026-04-26 02:50 | 34.60120 | -112.99652 | 31895 ft | 400 kts | 262° |
| 2026-04-26 02:50 | 34.59606 | -113.06377 | 31904 ft | 399 kts | 262° |
| 2026-04-26 02:51 | 34.59087 | -113.13081 | 31880 ft | 399 kts | 262° |
| 2026-04-26 02:51 | 34.58570 | -113.19745 | 31873 ft | 399 kts | 261° |
| 2026-04-26 02:52 | 34.58048 | -113.26433 | 31856 ft | 397 kts | 262° |
| 2026-04-26 02:52 | 34.57520 | -113.33128 | 31850 ft | 398 kts | 261° |
| 2026-04-26 02:53 | 34.56989 | -113.39820 | 31840 ft | 398 kts | 261° |
| 2026-04-26 02:53 | 34.56456 | -113.46517 | 31861 ft | 399 kts | 261° |
| 2026-04-26 02:54 | 34.55922 | -113.53170 | 31861 ft | 399 kts | 261° |
| 2026-04-26 02:54 | 34.55377 | -113.59909 | 31841 ft | 398 kts | 261° |
| 2026-04-26 02:55 | 34.54831 | -113.66567 | 31793 ft | 399 kts | 261° |
| 2026-04-26 02:55 | 34.54280 | -113.73267 | 31786 ft | 399 kts | 261° |
| 2026-04-26 02:56 | 34.53726 | -113.79976 | 31777 ft | 398 kts | 261° |
| 2026-04-26 02:56 | 34.53169 | -113.86663 | 31769 ft | 399 kts | 261° |
| 2026-04-26 02:57 | 34.52608 | -113.93363 | 31760 ft | 399 kts | 261° |
| 2026-04-26 02:57 | 34.52048 | -114.00013 | 31751 ft | 398 kts | 261° |
| 2026-04-26 02:58 | 34.51427 | -114.06667 | 31737 ft | 395 kts | 257° |
| 2026-04-26 02:58 | 34.50107 | -114.13123 | 31751 ft | 394 kts | 253° |
| 2026-04-26 02:59 | 34.48672 | -114.19547 | 31741 ft | 394 kts | 253° |
| 2026-04-26 02:59 | 34.47270 | -114.25980 | 31740 ft | 395 kts | 253° |
| 2026-04-26 03:00 | 34.45898 | -114.32383 | 31730 ft | 394 kts | 253° |
| 2026-04-26 03:00 | 34.44527 | -114.38817 | 31728 ft | 394 kts | 253° |
| 2026-04-26 03:01 | 34.43151 | -114.45250 | 31735 ft | 394 kts | 253° |
| 2026-04-26 03:01 | 34.41774 | -114.51681 | 31728 ft | 394 kts | 253° |
| 2026-04-26 03:02 | 34.40394 | -114.58105 | 31729 ft | 394 kts | 253° |
| 2026-04-26 03:02 | 34.39010 | -114.64522 | 31734 ft | 394 kts | 253° |
| 2026-04-26 03:03 | 34.37623 | -114.70945 | 31740 ft | 394 kts | 253° |
| 2026-04-26 03:03 | 34.36241 | -114.77328 | 31741 ft | 394 kts | 253° |
| 2026-04-26 03:04 | 34.34846 | -114.83750 | 31752 ft | 395 kts | 253° |
| 2026-04-26 03:04 | 34.33445 | -114.90185 | 31757 ft | 395 kts | 253° |
| 2026-04-26 03:05 | 34.32039 | -114.96620 | 31762 ft | 395 kts | 253° |
| 2026-04-26 03:05 | 34.30626 | -115.03054 | 31765 ft | 396 kts | 253° |
| 2026-04-26 03:06 | 34.29218 | -115.09449 | 31774 ft | 396 kts | 253° |
| 2026-04-26 03:06 | 34.27799 | -115.15890 | 31784 ft | 395 kts | 253° |
| 2026-04-26 03:07 | 34.26380 | -115.22310 | 31790 ft | 395 kts | 253° |
| 2026-04-26 03:07 | 34.25001 | -115.28743 | 31795 ft | 395 kts | 253° |
| 2026-04-26 03:08 | 34.23639 | -115.35167 | 31804 ft | 394 kts | 253° |
| 2026-04-26 03:08 | 34.22272 | -115.41578 | 31805 ft | 393 kts | 253° |
| 2026-04-26 03:09 | 34.20904 | -115.47962 | 31805 ft | 392 kts | 252° |
| 2026-04-26 03:09 | 34.19530 | -115.54332 | 31821 ft | 392 kts | 253° |
| 2026-04-26 03:10 | 34.18164 | -115.60702 | 31819 ft | 392 kts | 252° |
| 2026-04-26 03:10 | 34.16790 | -115.67067 | 31833 ft | 392 kts | 252° |
| 2026-04-26 03:11 | 34.15789 | -115.73511 | 31839 ft | 395 kts | 259° |
| 2026-04-26 03:11 | 34.15249 | -115.80107 | 31841 ft | 395 kts | 260° |
| 2026-04-26 03:12 | 34.14671 | -115.86687 | 31852 ft | 393 kts | 259° |
| 2026-04-26 03:12 | 34.14039 | -115.93243 | 31854 ft | 393 kts | 259° |
| 2026-04-26 03:13 | 34.13396 | -115.99791 | 31848 ft | 392 kts | 259° |
| 2026-04-26 03:13 | 34.12753 | -116.06350 | 31857 ft | 392 kts | 259° |
| 2026-04-26 03:14 | 34.12119 | -116.12802 | 31856 ft | 387 kts | 257° |
| 2026-04-26 03:14 | 34.11484 | -116.19231 | 31852 ft | 384 kts | 257° |
| 2026-04-26 03:15 | 34.10849 | -116.25621 | 31855 ft | 383 kts | 257° |
| 2026-04-26 03:15 | 34.10206 | -116.32003 | 31533 ft | 387 kts | 257° |
| 2026-04-26 03:16 | 34.09864 | -116.35222 | 30860 ft | 385 kts | 257° |
| 2026-04-26 03:16 | 34.09520 | -116.38423 | 30070 ft | 383 kts | 257° |
| 2026-04-26 03:16 | 34.09174 | -116.41618 | 29172 ft | 385 kts | 257° |
| 2026-04-26 03:16 | 34.08829 | -116.44825 | 28237 ft | 386 kts | 257° |
| 2026-04-26 03:17 | 34.08490 | -116.47974 | 27731 ft | 379 kts | 257° |
| 2026-04-26 03:17 | 34.08156 | -116.51104 | 27527 ft | 365 kts | 257° |
| 2026-04-26 03:17 | 34.07841 | -116.54044 | 27380 ft | 351 kts | 257° |
| 2026-04-26 03:17 | 34.07532 | -116.56913 | 27230 ft | 340 kts | 257° |
| 2026-04-26 03:18 | 34.07226 | -116.59739 | 26943 ft | 345 kts | 257° |
| 2026-04-26 03:18 | 34.06939 | -116.62658 | 26441 ft | 352 kts | 258° |
| 2026-04-26 03:18 | 34.06672 | -116.65588 | 25927 ft | 349 kts | 258° |
| 2026-04-26 03:18 | 34.06410 | -116.68486 | 25437 ft | 346 kts | 258° |
| 2026-04-26 03:19 | 34.06151 | -116.71354 | 24933 ft | 343 kts | 258° |
| 2026-04-26 03:19 | 34.05889 | -116.74202 | 24431 ft | 341 kts | 258° |
| 2026-04-26 03:19 | 34.05625 | -116.77035 | 23959 ft | 338 kts | 258° |
| 2026-04-26 03:19 | 34.05360 | -116.79847 | 23457 ft | 337 kts | 258° |
| 2026-04-26 03:20 | 34.05100 | -116.82644 | 22971 ft | 335 kts | 258° |
| 2026-04-26 03:20 | 34.04837 | -116.85436 | 22506 ft | 334 kts | 258° |
| 2026-04-26 03:20 | 34.04572 | -116.88225 | 22000 ft | 335 kts | 258° |
| 2026-04-26 03:20 | 34.04277 | -116.90995 | 21504 ft | 333 kts | 257° |
| 2026-04-26 03:21 | 34.03912 | -116.93745 | 21025 ft | 331 kts | 256° |
| 2026-04-26 03:21 | 34.03540 | -116.96477 | 20562 ft | 329 kts | 256° |
| 2026-04-26 03:21 | 34.03177 | -116.99194 | 20076 ft | 328 kts | 256° |
| 2026-04-26 03:21 | 34.02821 | -117.01910 | 19602 ft | 327 kts | 256° |
| 2026-04-26 03:22 | 34.02481 | -117.04585 | 19130 ft | 326 kts | 257° |
| 2026-04-26 03:22 | 34.02160 | -117.07282 | 18671 ft | 324 kts | 257° |
| 2026-04-26 03:22 | 34.01848 | -117.09964 | 18218 ft | 322 kts | 258° |
| 2026-04-26 03:22 | 34.01536 | -117.12632 | 17766 ft | 321 kts | 258° |
| 2026-04-26 03:23 | 34.01223 | -117.15286 | 17310 ft | 319 kts | 258° |
| 2026-04-26 03:23 | 34.00909 | -117.17928 | 16843 ft | 318 kts | 258° |
| 2026-04-26 03:23 | 34.00595 | -117.20557 | 16395 ft | 315 kts | 258° |
| 2026-04-26 03:23 | 34.00389 | -117.22283 | 16112 ft | 314 kts | 258° |
| 2026-04-26 03:24 | 34.00079 | -117.24882 | 15642 ft | 312 kts | 258° |
| 2026-04-26 03:24 | 33.99770 | -117.27463 | 15216 ft | 310 kts | 258° |
| 2026-04-26 03:24 | 33.99464 | -117.30022 | 14747 ft | 307 kts | 258° |
| 2026-04-26 03:24 | 33.99159 | -117.32570 | 14283 ft | 307 kts | 258° |
| 2026-04-26 03:25 | 33.98860 | -117.35114 | 13847 ft | 305 kts | 259° |
| 2026-04-26 03:25 | 33.98565 | -117.37633 | 13450 ft | 302 kts | 259° |
| 2026-04-26 03:25 | 33.98271 | -117.40127 | 13029 ft | 299 kts | 259° |
| 2026-04-26 03:25 | 33.97979 | -117.42603 | 12608 ft | 297 kts | 259° |
| 2026-04-26 03:26 | 33.97690 | -117.45057 | 12204 ft | 295 kts | 259° |
| 2026-04-26 03:26 | 33.97407 | -117.47453 | 12085 ft | 283 kts | 259° |
| 2026-04-26 03:26 | 33.97371 | -117.49800 | 11861 ft | 282 kts | 275° |
| 2026-04-26 03:26 | 33.97786 | -117.52117 | 11649 ft | 283 kts | 278° |
| 2026-04-26 03:27 | 33.98213 | -117.54424 | 11403 ft | 280 kts | 278° |
| 2026-04-26 03:27 | 33.98621 | -117.56656 | 11175 ft | 274 kts | 278° |
| 2026-04-26 03:27 | 33.99022 | -117.58883 | 10938 ft | 270 kts | 278° |
| 2026-04-26 03:27 | 33.99417 | -117.61103 | 10726 ft | 271 kts | 278° |
| 2026-04-26 03:28 | 33.99811 | -117.63328 | 10501 ft | 271 kts | 278° |
| 2026-04-26 03:28 | 34.00205 | -117.65556 | 10270 ft | 271 kts | 279° |
| 2026-04-26 03:28 | 34.00590 | -117.67782 | 10041 ft | 272 kts | 277° |
| 2026-04-26 03:28 | 34.00587 | -117.70050 | 9717 ft | 273 kts | 261° |
| 2026-04-26 03:29 | 34.00330 | -117.72334 | 9398 ft | 277 kts | 261° |
| 2026-04-26 03:29 | 34.00088 | -117.74640 | 9063 ft | 277 kts | 262° |
| 2026-04-26 03:29 | 33.99853 | -117.76936 | 8770 ft | 275 kts | 262° |
| 2026-04-26 03:29 | 33.99625 | -117.79211 | 8496 ft | 271 kts | 262° |
| 2026-04-26 03:30 | 33.99406 | -117.81426 | 8244 ft | 261 kts | 262° |
| 2026-04-26 03:30 | 33.99198 | -117.83568 | 7949 ft | 252 kts | 262° |
| 2026-04-26 03:30 | 33.98997 | -117.85631 | 7677 ft | 243 kts | 262° |
| 2026-04-26 03:30 | 33.98804 | -117.87619 | 7419 ft | 235 kts | 262° |
| 2026-04-26 03:31 | 33.98645 | -117.89541 | 7190 ft | 232 kts | 265° |
| 2026-04-26 03:31 | 33.98549 | -117.91482 | 6960 ft | 232 kts | 265° |
| 2026-04-26 03:31 | 33.98408 | -117.93422 | 6724 ft | 232 kts | 263° |
| 2026-04-26 03:31 | 33.98232 | -117.95354 | 6489 ft | 232 kts | 262° |
| 2026-04-26 03:32 | 33.98034 | -117.97289 | 6252 ft | 233 kts | 262° |
| 2026-04-26 03:32 | 33.97830 | -117.99231 | 6003 ft | 233 kts | 262° |
| 2026-04-26 03:32 | 33.97623 | -118.01168 | 5769 ft | 234 kts | 262° |
| 2026-04-26 03:32 | 33.97419 | -118.03088 | 5715 ft | 227 kts | 262° |
| 2026-04-26 03:33 | 33.97217 | -118.04988 | 5451 ft | 231 kts | 262° |
| 2026-04-26 03:33 | 33.97012 | -118.06919 | 5150 ft | 233 kts | 262° |
| 2026-04-26 03:33 | 33.96809 | -118.08836 | 4844 ft | 228 kts | 262° |
| 2026-04-26 03:33 | 33.96613 | -118.10706 | 4547 ft | 222 kts | 262° |
| 2026-04-26 03:34 | 33.96420 | -118.12537 | 4254 ft | 217 kts | 262° |
| 2026-04-26 03:34 | 33.96233 | -118.14323 | 3969 ft | 214 kts | 262° |
| 2026-04-26 03:34 | 33.96047 | -118.16084 | 3688 ft | 209 kts | 262° |
| 2026-04-26 03:34 | 33.95867 | -118.17801 | 3424 ft | 203 kts | 262° |
| 2026-04-26 03:35 | 33.95692 | -118.19470 | 3153 ft | 199 kts | 262° |
| 2026-04-26 03:35 | 33.95522 | -118.21103 | 2888 ft | 194 kts | 262° |
| 2026-04-26 03:35 | 33.95356 | -118.22676 | 2626 ft | 184 kts | 262° |
| 2026-04-26 03:35 | 33.95201 | -118.24156 | 2390 ft | 174 kts | 262° |
| 2026-04-26 03:36 | 33.95053 | -118.25578 | 2167 ft | 169 kts | 262° |
| 2026-04-26 03:36 | 33.94907 | -118.26976 | 1948 ft | 165 kts | 262° |
| 2026-04-26 03:36 | 33.94771 | -118.28287 | 1739 ft | 156 kts | 262° |
| 2026-04-26 03:36 | 33.94641 | -118.29542 | 1541 ft | 146 kts | 262° |
| 2026-04-26 03:37 | 33.94519 | -118.30717 | 1377 ft | 135 kts | 262° |
| 2026-04-26 03:37 | 33.94404 | -118.31838 | 1177 ft | 135 kts | 262° |
| 2026-04-26 03:37 | 33.94296 | -118.32974 | 1027 ft | 137 kts | 262° |
| 2026-04-26 03:37 | 33.94164 | -118.34119 | 806 ft | 140 kts | 262° |
| 2026-04-26 03:38 | 33.94057 | -118.35268 | 633 ft | 136 kts | 263° |
| 2026-04-26 03:38 | 33.93943 | -118.36406 | 448 ft | 138 kts | 261° |
| 2026-04-26 03:38 | 33.93815 | -118.37551 | 261 ft | 137 kts | 262° |
| 2026-04-26 03:38 | 33.93696 | -118.38692 | 110 ft | 137 kts | 261° |
| 2026-04-26 03:39 | 33.93587 | -118.39708 | 109 ft | 105 kts | 264° |
| 2026-04-26 03:39 | 33.93517 | -118.40420 | 111 ft | 49 kts | 263° |
| 2026-04-26 03:39 | 33.93489 | -118.40685 | 111 ft | 18 kts | 255° |
| 2026-04-26 03:39 | 33.93442 | -118.40722 | 109 ft | 4 kts | 174° |
| 2026-04-26 03:40 | 33.93387 | -118.40705 | 102 ft | 14 kts | 144° |
| 2026-04-26 03:40 | 33.93371 | -118.40632 | 101 ft | 0 kts | 79° |
| 2026-04-26 03:40 | 33.93372 | -118.40629 | 101 ft | 1 kts | 79° |
| 2026-04-26 03:40 | 33.93374 | -118.40618 | 101 ft | 2 kts | 79° |
| 2026-04-26 03:41 | 33.93377 | -118.40595 | 100 ft | 4 kts | 81° |
| 2026-04-26 03:41 | 33.93380 | -118.40559 | 100 ft | 5 kts | 84° |
| 2026-04-26 03:41 | 33.93385 | -118.40510 | 100 ft | 7 kts | 83° |
| 2026-04-26 03:41 | 33.93391 | -118.40441 | 99 ft | 10 kts | 83° |
| 2026-04-26 03:42 | 33.93401 | -118.40353 | 100 ft | 12 kts | 83° |
| 2026-04-26 03:42 | 33.93412 | -118.40248 | 99 ft | 13 kts | 83° |
| 2026-04-26 03:42 | 33.93423 | -118.40137 | 98 ft | 13 kts | 83° |
| 2026-04-26 03:42 | 33.93434 | -118.40029 | 100 ft | 13 kts | 83° |
| 2026-04-26 03:43 | 33.93444 | -118.39926 | 100 ft | 11 kts | 83° |
| 2026-04-26 03:43 | 33.93451 | -118.39854 | 100 ft | 7 kts | 84° |
| 2026-04-26 03:43 | 33.93415 | -118.39815 | 97 ft | 7 kts | 172° |
| 2026-04-26 03:43 | 33.93375 | -118.39809 | 96 ft | 6 kts | 172° |
| 2026-04-26 03:44 | 33.93339 | -118.39823 | 95 ft | 6 kts | 243° |
| 2026-04-26 03:44 | 33.93333 | -118.39875 | 97 ft | 6 kts | 264° |
| 2026-04-26 03:44 | 33.93356 | -118.39896 | 95 ft | 4 kts | 18° |
| 2026-04-26 03:44 | 33.93378 | -118.39905 | 97 ft | 4 kts | 296° |
| 2026-04-26 03:45 | 33.93366 | -118.39926 | 96 ft | 1 kts | 187° |
| 2026-04-26 03:45 | 33.93363 | -118.39925 | 96 ft | 0 kts | 171° |
| 2026-04-26 03:48 | 33.93364 | -118.39918 | 96 ft | 0 kts | 171° |